createdAt,value
2022-10-24T00:01:19.114Z,95338.80
2022-10-24T00:03:45.923Z,95340.80
2022-10-24T00:06:13.466Z,95338.20
2022-10-24T00:08:42.689Z,95338.40
2022-10-24T00:11:16.507Z,95341.60
2022-10-24T00:13:43.436Z,95343.00
2022-10-24T00:16:11.264Z,95340.80
2022-10-24T00:18:38.590Z,95346.80
2022-10-24T00:21:06.045Z,95346.00
2022-10-24T00:23:32.733Z,95335.80
2022-10-24T00:26:04.009Z,95346.00
2022-10-24T00:28:33.720Z,95357.80
2022-10-24T00:31:01.275Z,95377.40
2022-10-24T00:33:28.378Z,95390.40
2022-10-24T00:35:54.971Z,95404.80
2022-10-24T00:38:21.968Z,95420.00
2022-10-24T00:40:48.669Z,95430.80
2022-10-24T00:43:26.843Z,95417.60
2022-10-24T00:45:56.700Z,95419.80
2022-10-24T00:48:40.162Z,95402.00
2022-10-24T00:51:19.292Z,95410.40
2022-10-24T00:53:51.048Z,95413.20
2022-10-24T00:56:23.279Z,95413.80
2022-10-24T00:58:51.922Z,95405.60
2022-10-24T01:01:18.578Z,95391.20
2022-10-24T01:03:45.192Z,95386.80
2022-10-24T01:06:37.109Z,95385.40
2022-10-24T01:09:29.965Z,95379.20
2022-10-24T01:12:37.009Z,95367.60
2022-10-24T01:15:42.749Z,95362.00
2022-10-24T01:18:28.868Z,95356.20
2022-10-24T01:21:09.036Z,95344.80
2022-10-24T01:23:56.969Z,95348.00
2022-10-24T01:26:42.248Z,95333.20
2022-10-24T01:29:29.396Z,95320.00
2022-10-24T01:32:08.727Z,95306.80
2022-10-24T01:34:45.212Z,95306.00
2022-10-24T01:37:21.809Z,95296.20
2022-10-24T01:39:52.319Z,95280.00
2022-10-24T01:42:22.360Z,95284.60
2022-10-24T01:44:54.518Z,95286.00
2022-10-24T01:47:33.679Z,95286.80
2022-10-24T01:50:06.412Z,95295.60
2022-10-24T01:52:37.661Z,95289.80
2022-10-24T01:55:06.381Z,95289.20
2022-10-24T01:57:35.422Z,95291.60
2022-10-24T02:00:03.935Z,95289.80
2022-10-24T02:02:48.955Z,95296.60
2022-10-24T02:05:26.163Z,95276.20
2022-10-24T02:07:57.953Z,95283.00
2022-10-24T02:10:34.813Z,95277.60
2022-10-24T02:13:29.582Z,95235.40
2022-10-24T02:16:00.213Z,95232.20
2022-10-24T02:18:30.062Z,95201.40
2022-10-24T02:21:16.353Z,95190.80
2022-10-24T02:24:13.270Z,95190.40
2022-10-24T02:26:43.970Z,95192.00
2022-10-24T02:29:23.399Z,95180.80
2022-10-24T02:31:58.681Z,95166.60
2022-10-24T02:34:32.079Z,95168.00
2022-10-24T02:37:00.950Z,95159.60
2022-10-24T02:39:29.951Z,95156.80
2022-10-24T02:41:58.398Z,95154.00
2022-10-24T02:44:26.970Z,95153.20
2022-10-24T02:46:57.219Z,95149.40
2022-10-24T02:49:24.730Z,95155.20
2022-10-24T02:51:53.171Z,95145.80
2022-10-24T02:54:20.034Z,95144.60
2022-10-24T02:56:55.339Z,95150.60
2022-10-24T02:59:21.981Z,95160.20
2022-10-24T03:01:48.710Z,95160.40
2022-10-24T03:04:15.580Z,95159.20
2022-10-24T03:06:42.832Z,95151.20
2022-10-24T03:09:09.998Z,95146.00
2022-10-24T03:11:36.845Z,95147.00
2022-10-24T03:14:03.512Z,95150.80
2022-10-24T03:16:30.222Z,95145.80
2022-10-24T03:18:56.943Z,95153.60
2022-10-24T03:21:23.862Z,95158.00
2022-10-24T03:23:50.626Z,95159.40
2022-10-24T03:26:17.186Z,95161.20
2022-10-24T03:28:43.737Z,95161.20
2022-10-24T03:31:10.742Z,95164.20
2022-10-24T03:33:37.318Z,95165.80
2022-10-24T03:36:05.619Z,95171.20
2022-10-24T03:38:32.348Z,95175.00
2022-10-24T03:40:59.038Z,95174.40
2022-10-24T03:43:25.570Z,95179.80
2022-10-24T03:45:52.159Z,95175.60
2022-10-24T03:48:18.853Z,95167.00
2022-10-24T03:50:45.384Z,95149.80
2022-10-24T03:53:11.944Z,95165.60
2022-10-24T03:55:38.770Z,95180.40
2022-10-24T03:58:05.305Z,95167.80
2022-10-24T04:00:34.710Z,95175.40
2022-10-24T04:03:01.463Z,95170.00
2022-10-24T04:05:28.126Z,95180.00
2022-10-24T04:07:54.701Z,95188.00
2022-10-24T04:10:21.425Z,95188.20
2022-10-24T04:12:48.050Z,95189.00
2022-10-24T04:15:14.678Z,95189.40
2022-10-24T04:17:42.278Z,95198.20
2022-10-24T04:20:09.655Z,95209.20
2022-10-24T04:22:36.243Z,95210.00
2022-10-24T04:25:03.142Z,95211.40
2022-10-24T04:27:29.673Z,95217.80
2022-10-24T04:29:56.305Z,95224.40
2022-10-24T04:32:22.888Z,95231.80
2022-10-24T04:34:49.577Z,95234.20
2022-10-24T04:37:16.229Z,95229.60
2022-10-24T04:39:42.802Z,95231.40
2022-10-24T04:42:09.339Z,95240.60
2022-10-24T04:44:35.882Z,95242.40
2022-10-24T04:47:02.451Z,95243.40
2022-10-24T04:49:28.966Z,95239.20
2022-10-24T04:51:55.473Z,95225.00
2022-10-24T04:54:22.160Z,95219.40
2022-10-24T04:56:48.660Z,95223.00
2022-10-24T04:59:15.163Z,95228.00
2022-10-24T05:01:41.740Z,95220.60
2022-10-24T05:04:09.236Z,95215.40
2022-10-24T05:06:35.860Z,95224.20
2022-10-24T05:09:02.355Z,95226.80
2022-10-24T05:11:29.003Z,95215.20
2022-10-24T05:13:55.585Z,95216.80
2022-10-24T05:16:22.215Z,95217.60
2022-10-24T05:18:49.273Z,95218.80
2022-10-24T05:21:16.102Z,95224.80
2022-10-24T05:23:42.854Z,95222.00
2022-10-24T05:26:09.396Z,95224.40
2022-10-24T05:28:36.074Z,95225.20
2022-10-24T05:31:02.679Z,95228.00
2022-10-24T05:33:29.309Z,95230.60
2022-10-24T05:35:55.981Z,95230.40
2022-10-24T05:38:23.305Z,95236.80
2022-10-24T05:40:51.363Z,95240.00
2022-10-24T05:43:18.228Z,95241.00
2022-10-24T05:45:45.274Z,95243.60
2022-10-24T05:48:11.865Z,95244.00
2022-10-24T05:50:38.428Z,95249.60
2022-10-24T05:53:05.877Z,95247.40
2022-10-24T05:55:33.669Z,95256.80
2022-10-24T05:58:00.227Z,95263.80
2022-10-24T06:00:26.970Z,95269.60
2022-10-24T06:02:53.628Z,95268.60
2022-10-24T06:05:20.964Z,95272.80
2022-10-24T06:07:48.068Z,95277.80
2022-10-24T06:10:15.401Z,95275.80
2022-10-24T06:12:42.181Z,95273.60
2022-10-24T06:15:11.634Z,95273.20
2022-10-24T06:17:38.203Z,95275.60
2022-10-24T06:20:05.306Z,95276.40
2022-10-24T06:22:32.060Z,95274.20
2022-10-24T06:24:58.756Z,95272.00
2022-10-24T06:27:25.519Z,95272.00
2022-10-24T06:29:52.085Z,95267.60
2022-10-24T06:32:18.897Z,95272.20
2022-10-24T06:34:45.449Z,95271.00
2022-10-24T06:37:12.087Z,95269.80
2022-10-24T06:39:38.607Z,95268.60
2022-10-24T06:42:05.275Z,95267.40
2022-10-24T06:44:31.787Z,95260.40
2022-10-24T06:46:58.720Z,95249.60
2022-10-24T06:49:25.241Z,95247.40
2022-10-24T06:51:51.816Z,95235.20
2022-10-24T06:54:18.357Z,95230.60
2022-10-24T06:56:44.969Z,95223.60
2022-10-24T06:59:17.288Z,95226.20
2022-10-24T07:01:44.369Z,95242.60
2022-10-24T07:04:11.255Z,95249.40
2022-10-24T07:06:37.869Z,95259.20
2022-10-24T07:09:06.596Z,95263.60
2022-10-24T07:11:34.999Z,95262.20
2022-10-24T07:14:04.437Z,95258.40
2022-10-24T07:16:32.281Z,95256.00
2022-10-24T07:18:58.781Z,95259.60
2022-10-24T07:21:28.932Z,95262.80
2022-10-24T07:23:56.232Z,95266.60
2022-10-24T07:26:25.203Z,95273.80
2022-10-24T07:28:58.544Z,95279.60
2022-10-24T07:31:29.804Z,95287.40
2022-10-24T07:33:56.567Z,95286.80
2022-10-24T07:36:26.225Z,95285.60
2022-10-24T07:38:57.070Z,95282.60
2022-10-24T07:41:25.731Z,95275.40
2022-10-24T07:43:55.126Z,95274.40
2022-10-24T07:46:22.614Z,95281.00
2022-10-24T07:48:50.968Z,95290.40
2022-10-24T07:51:18.637Z,95293.80
2022-10-24T07:53:45.252Z,95292.40
2022-10-24T07:56:15.601Z,95289.60
2022-10-24T07:58:43.912Z,95283.00
2022-10-24T08:01:15.186Z,95289.60
2022-10-24T08:03:42.169Z,95292.00
2022-10-24T08:06:15.939Z,95297.00
2022-10-24T08:08:42.559Z,95293.60
2022-10-24T08:11:13.554Z,95292.40
2022-10-24T08:13:40.217Z,95292.40
2022-10-24T08:16:10.361Z,95290.00
2022-10-24T08:18:39.526Z,95292.00
2022-10-24T08:21:11.821Z,95287.20
2022-10-24T08:23:44.022Z,95286.60
2022-10-24T08:26:15.636Z,95279.20
2022-10-24T08:28:44.016Z,95277.80
2022-10-24T08:31:15.786Z,95276.80
2022-10-24T08:33:43.013Z,95274.00
2022-10-24T08:36:25.132Z,95276.60
2022-10-24T08:38:52.505Z,95269.20
2022-10-24T08:42:07.478Z,95272.20
2022-10-24T08:44:40.181Z,95283.20
2022-10-24T08:47:31.193Z,95290.40
2022-10-24T08:50:06.595Z,95288.80
2022-10-24T08:53:01.018Z,95291.00
2022-10-24T08:55:49.649Z,95296.00
2022-10-24T08:58:42.659Z,95296.80
2022-10-24T09:01:20.679Z,95300.00
2022-10-24T09:03:57.352Z,95304.20
2022-10-24T09:06:30.656Z,95313.20
2022-10-24T09:09:02.113Z,95317.40
2022-10-24T09:11:54.918Z,95324.40
2022-10-24T09:14:26.408Z,95317.80
2022-10-24T09:17:00.700Z,95317.00
2022-10-24T09:19:30.732Z,95315.20
2022-10-24T09:21:59.562Z,95310.20
2022-10-24T09:24:52.816Z,95308.80
2022-10-24T09:27:27.440Z,95308.20
2022-10-24T09:29:54.049Z,95304.80
2022-10-24T09:32:26.890Z,95302.40
2022-10-24T09:34:54.637Z,95299.20
2022-10-24T09:37:42.806Z,95307.60
2022-10-24T09:40:22.380Z,95314.00
2022-10-24T09:43:22.042Z,95312.60
2022-10-24T09:45:52.235Z,95311.80
2022-10-24T09:48:42.076Z,95312.40
2022-10-24T09:51:09.296Z,95312.40
2022-10-24T09:54:01.496Z,95313.40
2022-10-24T09:56:42.126Z,95311.40
2022-10-24T09:59:27.039Z,95311.00
2022-10-24T10:01:54.709Z,95315.00
2022-10-24T10:04:21.328Z,95321.40
2022-10-24T10:06:50.342Z,95323.20
2022-10-24T10:09:26.879Z,95321.20
2022-10-24T10:12:02.747Z,95326.00
2022-10-24T10:14:30.359Z,95328.60
2022-10-24T10:17:05.044Z,95324.60
2022-10-24T10:19:37.768Z,95317.00
2022-10-24T10:22:31.923Z,95317.00
2022-10-24T10:25:00.346Z,95317.20
2022-10-24T10:27:35.094Z,95313.20
2022-10-24T10:30:16.956Z,95298.60
2022-10-24T10:32:46.130Z,95312.60
2022-10-24T10:35:49.213Z,95323.00
2022-10-24T10:38:41.174Z,95325.80
2022-10-24T10:41:32.709Z,95324.20
2022-10-24T10:44:26.916Z,95331.40
2022-10-24T10:47:26.783Z,95337.80
2022-10-24T10:49:58.473Z,95336.80
2022-10-24T10:52:48.603Z,95335.80
2022-10-24T10:55:31.236Z,95343.40
2022-10-24T10:58:44.507Z,95341.00
2022-10-24T11:01:48.518Z,95337.00
2022-10-24T11:04:47.271Z,95339.20
2022-10-24T11:07:56.342Z,95340.40
2022-10-24T11:10:28.487Z,95341.40
2022-10-24T11:12:58.931Z,95339.40
2022-10-24T11:15:31.882Z,95343.60
2022-10-24T11:18:15.592Z,95344.60
2022-10-24T11:20:53.200Z,95347.00
2022-10-24T11:24:18.837Z,95359.60
2022-10-24T11:26:58.528Z,95363.20
2022-10-24T11:29:40.051Z,95364.40
2022-10-24T11:32:44.729Z,95369.80
2022-10-24T11:35:53.722Z,95369.60
2022-10-24T11:38:23.434Z,95370.80
2022-10-24T11:41:12.932Z,95372.60
2022-10-24T11:43:41.258Z,95367.60
2022-10-24T11:46:22.797Z,95372.40
2022-10-24T11:49:03.437Z,95369.40
2022-10-24T11:51:43.908Z,95369.00
2022-10-24T11:54:30.091Z,95371.40
2022-10-24T11:57:09.405Z,95372.20
2022-10-24T11:59:39.661Z,95374.00
2022-10-24T12:02:53.849Z,95380.40
2022-10-24T12:05:52.986Z,95382.60
2022-10-24T12:08:53.615Z,95391.20
2022-10-24T12:11:31.685Z,95400.20
2022-10-24T12:14:26.596Z,95397.00
2022-10-24T12:17:21.137Z,95393.20
2022-10-24T12:19:50.632Z,95391.80
2022-10-24T12:22:23.837Z,95384.20
2022-10-24T12:25:05.677Z,95371.60
2022-10-24T12:27:40.043Z,95375.80
2022-10-24T12:30:09.606Z,95378.20
2022-10-24T12:32:49.590Z,95377.20
2022-10-24T12:35:31.935Z,95362.00
2022-10-24T12:38:00.675Z,95347.20
2022-10-24T12:40:45.854Z,95334.60
2022-10-24T12:43:35.425Z,95348.20
2022-10-24T12:46:24.314Z,95361.40
2022-10-24T12:48:56.662Z,95376.60
2022-10-24T12:51:34.370Z,95387.80
2022-10-24T12:54:13.073Z,95384.40
2022-10-24T12:56:52.131Z,95377.40
2022-10-24T12:59:46.069Z,95376.20
2022-10-24T13:02:15.671Z,95378.40
2022-10-24T13:05:15.284Z,95376.40
2022-10-24T13:08:21.723Z,95374.00
2022-10-24T13:11:19.606Z,95375.20
2022-10-24T13:14:36.428Z,95372.20
2022-10-24T13:17:22.234Z,95366.00
2022-10-24T13:20:26.935Z,95363.20
2022-10-24T13:23:14.011Z,95353.80
2022-10-24T13:25:41.835Z,95343.80
2022-10-24T13:28:19.670Z,95330.20
2022-10-24T13:30:59.591Z,95324.40
2022-10-24T13:33:32.447Z,95318.40
2022-10-24T13:36:24.236Z,95332.40
2022-10-24T13:39:00.200Z,95340.60
2022-10-24T13:41:48.684Z,95321.20
2022-10-24T13:44:48.396Z,95314.80
2022-10-24T13:47:36.692Z,95305.80
2022-10-24T13:50:19.123Z,95293.20
2022-10-24T13:52:54.778Z,95284.00
2022-10-24T13:55:47.974Z,95284.00
2022-10-24T13:58:24.690Z,95297.20
2022-10-24T14:01:06.260Z,95304.40
2022-10-24T14:03:34.620Z,95321.00
2022-10-24T14:06:08.457Z,95309.80
2022-10-24T14:08:45.093Z,95292.00
2022-10-24T14:11:23.641Z,95279.60
2022-10-24T14:13:59.588Z,95279.80
2022-10-24T14:16:33.419Z,95292.20
2022-10-24T14:19:29.652Z,95306.80
2022-10-24T14:21:58.339Z,95312.20
2022-10-24T14:24:25.554Z,95308.80
2022-10-24T14:26:54.144Z,95311.20
2022-10-24T14:29:32.526Z,95314.60
2022-10-24T14:32:02.982Z,95315.60
2022-10-24T14:34:35.359Z,95308.40
2022-10-24T14:37:11.613Z,95312.00
2022-10-24T14:39:39.998Z,95297.80
2022-10-24T14:42:15.704Z,95282.40
2022-10-24T14:44:46.379Z,95269.80
2022-10-24T14:47:34.113Z,95245.80
2022-10-24T14:50:01.169Z,95247.40
2022-10-24T14:52:37.267Z,95266.20
2022-10-24T14:55:20.781Z,95284.60
2022-10-24T14:57:52.697Z,95279.80
2022-10-24T15:00:25.812Z,95270.60
2022-10-24T15:02:56.855Z,95270.80
2022-10-24T15:05:31.025Z,95272.00
2022-10-24T15:08:28.137Z,95286.40
2022-10-24T15:11:16.241Z,95290.80
2022-10-24T15:14:05.214Z,95292.60
2022-10-24T15:16:39.658Z,95291.40
2022-10-24T15:19:13.549Z,95287.40
2022-10-24T15:21:46.220Z,95302.20
2022-10-24T15:24:25.707Z,95297.20
2022-10-24T15:26:54.467Z,95289.60
2022-10-24T15:29:23.197Z,95288.00
2022-10-24T15:31:52.150Z,95285.80
2022-10-24T15:34:22.678Z,95297.60
2022-10-24T15:36:52.329Z,95294.20
2022-10-24T15:39:24.258Z,95290.00
2022-10-24T15:41:51.160Z,95293.60
2022-10-24T15:44:26.674Z,95293.60
2022-10-24T15:46:54.823Z,95302.80
2022-10-24T15:49:21.654Z,95301.20
2022-10-24T15:51:50.953Z,95304.60
2022-10-24T15:54:21.051Z,95310.60
2022-10-24T15:56:48.663Z,95314.20
2022-10-24T15:59:15.598Z,95315.40
2022-10-24T16:01:50.834Z,95310.40
2022-10-24T16:04:18.486Z,95309.00
2022-10-24T16:06:45.097Z,95313.20
2022-10-24T16:09:19.140Z,95317.80
2022-10-24T16:11:45.927Z,95323.40
2022-10-24T16:14:20.107Z,95321.20
2022-10-24T16:16:47.255Z,95320.60
2022-10-24T16:19:14.091Z,95324.20
2022-10-24T16:21:41.906Z,95325.80
2022-10-24T16:24:10.374Z,95328.00
2022-10-24T16:26:37.416Z,95325.00
2022-10-24T16:29:05.181Z,95321.80
2022-10-24T16:31:32.948Z,95315.20
2022-10-24T16:34:00.069Z,95320.20
2022-10-24T16:36:27.393Z,95327.60
2022-10-24T16:38:54.520Z,95332.40
2022-10-24T16:41:25.150Z,95330.80
2022-10-24T16:43:56.728Z,95335.20
2022-10-24T16:46:25.969Z,95336.20
2022-10-24T16:48:53.216Z,95337.80
2022-10-24T16:51:25.372Z,95334.20
2022-10-24T16:53:52.009Z,95333.80
2022-10-24T16:56:18.645Z,95337.40
2022-10-24T16:58:45.340Z,95335.00
2022-10-24T17:01:15.070Z,95334.20
2022-10-24T17:03:45.038Z,95335.40
2022-10-24T17:06:12.323Z,95337.80
2022-10-24T17:08:39.062Z,95331.80
2022-10-24T17:11:20.232Z,95328.80
2022-10-24T17:13:52.568Z,95326.80
2022-10-24T17:16:20.870Z,95332.20
2022-10-24T17:19:04.701Z,95329.00
2022-10-24T17:21:33.391Z,95327.40
2022-10-24T17:24:00.199Z,95329.20
2022-10-24T17:26:27.942Z,95331.60
2022-10-24T17:28:54.606Z,95338.40
2022-10-24T17:31:21.323Z,95344.40
2022-10-24T17:33:48.147Z,95341.80
2022-10-24T17:36:30.226Z,95354.40
2022-10-24T17:39:10.390Z,95356.00
2022-10-24T17:41:40.632Z,95353.80
2022-10-24T17:44:16.490Z,95353.00
2022-10-24T17:46:44.839Z,95351.40
2022-10-24T17:49:17.889Z,95355.20
2022-10-24T17:51:49.085Z,95351.80
2022-10-24T17:54:17.009Z,95352.20
2022-10-24T17:56:44.220Z,95349.20
2022-10-24T17:59:10.920Z,95347.00
2022-10-24T18:01:37.811Z,95345.40
2022-10-24T18:04:05.344Z,95349.20
2022-10-24T18:06:32.598Z,95349.40
2022-10-24T18:08:59.632Z,95351.00
2022-10-24T18:11:26.575Z,95353.40
2022-10-24T18:13:53.435Z,95354.00
2022-10-24T18:16:20.342Z,95348.80
2022-10-24T18:18:48.532Z,95342.80
2022-10-24T18:21:24.805Z,95340.40
2022-10-24T18:23:53.624Z,95344.80
2022-10-24T18:26:24.569Z,95348.80
2022-10-24T18:28:55.624Z,95344.20
2022-10-24T18:31:26.415Z,95338.20
2022-10-24T18:33:53.741Z,95344.00
2022-10-24T18:36:26.390Z,95333.60
2022-10-24T18:38:59.165Z,95334.80
2022-10-24T18:41:29.310Z,95330.40
2022-10-24T18:43:59.052Z,95323.60
2022-10-24T18:46:26.850Z,95327.80
2022-10-24T18:48:54.163Z,95331.40
2022-10-24T18:51:52.871Z,95336.20
2022-10-24T18:54:21.095Z,95342.20
2022-10-24T18:56:48.059Z,95335.60
2022-10-24T18:59:20.993Z,95340.00
2022-10-24T19:02:24.989Z,95344.80
2022-10-24T19:05:16.615Z,95346.20
2022-10-24T19:07:45.170Z,95331.60
2022-10-24T19:10:22.011Z,95325.40
2022-10-24T19:12:48.990Z,95325.20
2022-10-24T19:15:18.592Z,95313.60
2022-10-24T19:17:46.913Z,95305.80
2022-10-24T19:20:20.716Z,95310.40
2022-10-24T19:22:47.827Z,95311.80
2022-10-24T19:25:16.301Z,95301.60
2022-10-24T19:27:43.470Z,95301.20
2022-10-24T19:30:11.192Z,95311.40
2022-10-24T19:32:37.872Z,95312.40
2022-10-24T19:35:05.107Z,95306.20
2022-10-24T19:37:31.828Z,95306.60
2022-10-24T19:39:58.380Z,95320.00
2022-10-24T19:42:25.048Z,95323.60
2022-10-24T19:44:54.647Z,95322.20
2022-10-24T19:47:22.047Z,95319.80
2022-10-24T19:49:49.547Z,95323.80
2022-10-24T19:52:16.343Z,95320.60
2022-10-24T19:54:42.863Z,95321.40
2022-10-24T19:57:09.829Z,95312.60
2022-10-24T19:59:36.587Z,95310.20
2022-10-24T20:02:04.894Z,95300.80
2022-10-24T20:04:31.845Z,95310.20
2022-10-24T20:06:58.355Z,95311.00
2022-10-24T20:09:24.962Z,95322.00
2022-10-24T20:11:51.451Z,95322.60
2022-10-24T20:14:18.142Z,95323.60
2022-10-24T20:16:44.696Z,95326.20
2022-10-24T20:19:11.271Z,95331.00
2022-10-24T20:21:38.067Z,95331.80
2022-10-24T20:24:05.218Z,95342.20
2022-10-24T20:26:32.203Z,95338.20
2022-10-24T20:28:58.754Z,95342.60
2022-10-24T20:31:34.506Z,95331.60
2022-10-24T20:34:08.015Z,95333.60
2022-10-24T20:36:37.606Z,95331.60
2022-10-24T20:39:08.670Z,95333.20
2022-10-24T20:41:36.474Z,95330.60
2022-10-24T20:44:04.467Z,95329.60
2022-10-24T20:46:31.289Z,95331.40
2022-10-24T20:48:57.949Z,95338.40
2022-10-24T20:51:24.574Z,95345.00
2022-10-24T20:53:51.993Z,95345.00
2022-10-24T20:56:22.446Z,95342.40
2022-10-24T20:58:51.593Z,95354.80
2022-10-24T21:01:23.168Z,95363.20
2022-10-24T21:03:52.383Z,95367.00
2022-10-24T21:06:24.719Z,95371.20
2022-10-24T21:08:54.349Z,95369.00
2022-10-24T21:11:28.038Z,95369.40
2022-10-24T21:13:58.632Z,95368.00
2022-10-24T21:16:26.732Z,95364.60
2022-10-24T21:18:54.290Z,95362.60
2022-10-24T21:21:22.392Z,95359.60
2022-10-24T21:23:55.447Z,95366.60
2022-10-24T21:26:22.326Z,95370.80
2022-10-24T21:28:48.932Z,95374.20
2022-10-24T21:31:18.426Z,95381.40
2022-10-24T21:33:45.505Z,95382.60
2022-10-24T21:36:15.224Z,95387.60
2022-10-24T21:38:46.395Z,95386.40
2022-10-24T21:41:12.995Z,95388.00
2022-10-24T21:43:42.157Z,95390.60
2022-10-24T21:46:22.049Z,95401.20
2022-10-24T21:48:51.264Z,95396.40
2022-10-24T21:51:28.097Z,95403.00
2022-10-24T21:54:08.050Z,95410.00
2022-10-24T21:56:39.157Z,95402.00
2022-10-24T21:59:13.615Z,95407.40
2022-10-24T22:01:41.678Z,95405.60
2022-10-24T22:04:08.860Z,95402.20
2022-10-24T22:06:36.146Z,95402.60
2022-10-24T22:09:06.172Z,95403.60
2022-10-24T22:11:35.397Z,95402.00
2022-10-24T22:14:03.924Z,95408.40
2022-10-24T22:16:32.705Z,95415.60
2022-10-24T22:19:05.772Z,95420.60
2022-10-24T22:21:39.467Z,95423.20
2022-10-24T22:24:13.735Z,95430.60
2022-10-24T22:26:41.008Z,95427.80
2022-10-24T22:29:10.865Z,95427.80
2022-10-24T22:31:38.063Z,95433.60
2022-10-24T22:34:05.442Z,95443.00
2022-10-24T22:37:02.408Z,95443.00
2022-10-24T22:39:29.268Z,95453.40
2022-10-24T22:41:56.293Z,95463.00
2022-10-24T22:44:23.393Z,95461.00
2022-10-24T22:47:26.144Z,95466.20
2022-10-24T22:50:11.341Z,95477.00
2022-10-24T22:52:38.315Z,95481.00
2022-10-24T22:55:17.748Z,95492.40
2022-10-24T22:57:44.866Z,95506.80
2022-10-24T23:00:12.403Z,95512.80
2022-10-24T23:02:45.754Z,95526.20
2022-10-24T23:05:36.717Z,95523.40
2022-10-24T23:08:09.730Z,95521.80
2022-10-24T23:10:39.580Z,95525.40
2022-10-24T23:13:06.793Z,95526.60
2022-10-24T23:15:33.598Z,95525.60
2022-10-24T23:18:00.543Z,95521.40
2022-10-24T23:20:43.100Z,95520.40
2022-10-24T23:23:28.064Z,95516.00
2022-10-24T23:26:24.284Z,95517.80
2022-10-24T23:29:09.204Z,95523.20
2022-10-24T23:31:36.280Z,95519.80
2022-10-24T23:34:03.389Z,95523.40
2022-10-24T23:36:30.305Z,95527.40
2022-10-24T23:38:57.253Z,95526.20
2022-10-24T23:41:24.219Z,95525.40
2022-10-24T23:43:51.189Z,95522.00
2022-10-24T23:46:38.620Z,95522.60
2022-10-24T23:49:23.387Z,95532.60
2022-10-24T23:52:02.836Z,95526.40
2022-10-24T23:54:33.577Z,95519.60
2022-10-24T23:57:01.320Z,95515.80
2022-10-24T23:59:28.805Z,95514.60
